X  CloseMetar Aviation Weather Data     EGGD Bristol Airport

Temperature

0°C Temperature

0°C Dewpoint

100% Humidity



Wind

10 KM/H

 6 MPH

 3 M/S

 5 KTS



70°
East North
East
Current Conditions

Fog Fog
Pressure 1020.92 (hPa) - 30.15 (in)
Visibility 0 (mi) - 0 (km)
Airport
Airport-code EGGD

Location Bristol Airport 9 (mi)

Metar:
EGGD 270120Z AUTO 07005KT 0150 FG NCD 00/M00 Q1021

Time: 2020-11-27 01:20